Terminal Aerodrome Forecast
Issued by NWS Knoxville/Tri Cities, TN

Home | Current Version | Previous Version | Text Only | Print | Product List | Glossary On
Versions: 1 2 3 4 5 6 7 8 9 10 11 12 13 14 15
000
FTUS44 KMRX 310531
TAFCHA
TAF
KCHA 310531Z 3106/0106 00000KT P6SM SKC
     FM310900 00000KT P6SM BKN250
     FM311200 00000KT P6SM BKN100
     FM311400 26006KT P6SM BKN070
     FM311800 32010KT P6SM BKN050
     FM312100 32012KT P6SM OVC035
     FM010000 32015G25KT P6SM BKN050=

USA.gov is the U.S. government's official web portal to all federal, state and local government web resources and services.